createdAt,value
2023-07-03T00:01:33.446Z,4.00
2023-07-03T00:03:39.745Z,3.40
2023-07-03T00:05:44.353Z,7.40
2023-07-03T00:07:49.192Z,4.80
2023-07-03T00:09:53.164Z,4.00
2023-07-03T00:11:56.874Z,4.10
2023-07-03T00:14:01.717Z,4.00
2023-07-03T00:16:06.627Z,3.33
2023-07-03T00:18:10.228Z,4.00
2023-07-03T00:20:15.696Z,4.70
2023-07-03T00:22:19.476Z,4.63
2023-07-03T00:24:23.252Z,4.20
2023-07-03T00:26:26.876Z,5.60
2023-07-03T00:28:30.450Z,4.20
2023-07-03T00:30:36.478Z,4.63
2023-07-03T00:32:40.960Z,4.70
2023-07-03T00:34:44.542Z,4.67
2023-07-03T00:36:48.319Z,3.73
2023-07-03T00:38:51.958Z,4.27
2023-07-03T00:40:55.427Z,4.17
2023-07-03T00:42:59.825Z,3.80
2023-07-03T00:45:03.720Z,4.07
2023-07-03T00:47:11.741Z,4.90
2023-07-03T00:49:15.830Z,5.17
2023-07-03T00:51:20.616Z,3.93
2023-07-03T00:53:24.495Z,4.50
2023-07-03T00:55:27.976Z,4.73
2023-07-03T00:57:31.576Z,3.77
2023-07-03T00:59:35.758Z,4.83
2023-07-03T01:01:46.183Z,5.10
2023-07-03T01:03:55.812Z,4.33
2023-07-03T01:06:00.040Z,5.37
2023-07-03T01:08:03.966Z,4.60
2023-07-03T01:10:12.878Z,3.80
2023-07-03T01:12:17.659Z,4.77
2023-07-03T01:14:24.269Z,4.87
2023-07-03T01:16:28.034Z,4.37
2023-07-03T01:18:31.736Z,4.40
2023-07-03T01:20:42.646Z,5.50
2023-07-03T01:22:54.283Z,4.80
2023-07-03T01:25:05.706Z,5.47
2023-07-03T01:27:12.283Z,3.50
2023-07-03T01:29:17.820Z,5.00
2023-07-03T01:31:23.600Z,4.37
2023-07-03T01:33:32.212Z,7.83
2023-07-03T01:35:36.766Z,5.43
2023-07-03T01:37:42.405Z,6.03
2023-07-03T01:39:50.366Z,4.10
2023-07-03T01:41:56.474Z,4.27
2023-07-03T01:44:00.424Z,4.80
2023-07-03T01:46:04.642Z,5.00
2023-07-03T01:48:09.144Z,4.80
2023-07-03T01:50:17.715Z,4.47
2023-07-03T01:52:23.983Z,4.37
2023-07-03T01:54:32.082Z,5.00
2023-07-03T01:56:40.309Z,3.93
2023-07-03T01:58:48.892Z,5.33
2023-07-03T02:00:57.123Z,4.23
2023-07-03T02:03:04.455Z,4.60
2023-07-03T02:05:12.959Z,4.30
2023-07-03T02:07:18.561Z,5.03
2023-07-03T02:09:23.459Z,5.37
2023-07-03T02:11:30.301Z,4.80
2023-07-03T02:13:34.971Z,4.10
2023-07-03T02:15:40.621Z,4.40
2023-07-03T02:17:44.783Z,5.17
2023-07-03T02:19:48.897Z,5.03
2023-07-03T02:21:52.699Z,4.50
2023-07-03T02:23:56.176Z,4.47
2023-07-03T02:25:59.808Z,4.10
2023-07-03T02:28:03.382Z,4.00
2023-07-03T02:30:08.188Z,4.43
2023-07-03T02:32:13.576Z,4.90
2023-07-03T02:34:22.137Z,5.07
2023-07-03T02:36:30.568Z,4.20
2023-07-03T02:38:34.501Z,5.33
2023-07-03T02:40:38.857Z,4.30
2023-07-03T02:42:42.832Z,3.90
2023-07-03T02:44:46.840Z,5.50
2023-07-03T02:46:50.553Z,3.87
2023-07-03T02:48:57.606Z,5.33
2023-07-03T02:51:01.126Z,4.47
2023-07-03T02:53:04.806Z,4.63
2023-07-03T02:55:10.466Z,4.10
2023-07-03T02:57:13.988Z,4.43
2023-07-03T02:59:17.532Z,5.17
2023-07-03T03:01:21.168Z,4.10
2023-07-03T03:03:26.129Z,4.67
2023-07-03T03:05:31.289Z,3.93
2023-07-03T03:07:35.500Z,5.83
2023-07-03T03:09:38.951Z,4.13
2023-07-03T03:11:42.451Z,4.60
2023-07-03T03:13:47.470Z,8.70
2023-07-03T03:15:52.715Z,4.53
2023-07-03T03:17:56.677Z,5.27
2023-07-03T03:20:00.329Z,6.47
2023-07-03T03:22:06.541Z,4.27
2023-07-03T03:24:10.117Z,4.47
2023-07-03T03:26:13.840Z,4.10
2023-07-03T03:28:17.468Z,5.13
2023-07-03T03:30:21.550Z,4.67
2023-07-03T03:32:26.496Z,4.30
2023-07-03T03:34:30.174Z,4.47
2023-07-03T03:36:38.328Z,4.80
2023-07-03T03:38:43.440Z,5.43
2023-07-03T03:40:55.635Z,9.60
2023-07-03T03:43:01.292Z,4.20
2023-07-03T03:45:05.305Z,5.30
2023-07-03T03:47:09.554Z,5.03
2023-07-03T03:49:14.105Z,4.70
2023-07-03T03:51:17.705Z,4.47
2023-07-03T03:53:24.320Z,4.33
2023-07-03T03:55:29.855Z,4.07
2023-07-03T03:57:33.709Z,4.47
2023-07-03T03:59:38.334Z,4.00
2023-07-03T04:01:43.308Z,5.30
2023-07-03T04:03:47.082Z,3.93
2023-07-03T04:05:51.018Z,5.10
2023-07-03T04:07:55.004Z,3.90
2023-07-03T04:09:58.471Z,4.77
2023-07-03T04:12:03.615Z,5.43
2023-07-03T04:14:07.288Z,4.93
2023-07-03T04:16:15.090Z,5.07
2023-07-03T04:18:21.978Z,5.03
2023-07-03T04:20:31.638Z,4.43
2023-07-03T04:22:38.713Z,5.47
2023-07-03T04:24:42.357Z,5.10
2023-07-03T04:26:46.045Z,5.33
2023-07-03T04:28:51.016Z,4.83
2023-07-03T04:30:55.556Z,5.30
2023-07-03T04:32:59.196Z,13.63
2023-07-03T04:35:03.407Z,4.30
2023-07-03T04:37:09.613Z,4.73
2023-07-03T04:39:13.171Z,4.50
2023-07-03T04:41:17.617Z,4.80
2023-07-03T04:43:21.733Z,5.30
2023-07-03T04:45:27.709Z,5.50
2023-07-03T04:47:31.966Z,5.27
2023-07-03T04:49:36.198Z,4.40
2023-07-03T04:51:40.921Z,5.27
2023-07-03T04:53:44.334Z,5.97
2023-07-03T04:55:47.840Z,5.10
2023-07-03T04:57:51.344Z,4.17
2023-07-03T04:59:56.081Z,6.03
2023-07-03T05:02:00.996Z,5.30
2023-07-03T05:04:04.810Z,4.60
2023-07-03T05:06:08.980Z,5.00
2023-07-03T05:08:12.452Z,5.20
2023-07-03T05:10:18.492Z,5.03
2023-07-03T05:12:21.993Z,5.17
2023-07-03T05:14:25.411Z,5.23
2023-07-03T05:16:29.439Z,5.40
2023-07-03T05:18:34.450Z,5.87
2023-07-03T05:20:38.378Z,4.90
2023-07-03T05:22:44.616Z,4.67
2023-07-03T05:24:48.722Z,4.43
2023-07-03T05:26:52.091Z,5.20
2023-07-03T05:28:55.605Z,4.83
2023-07-03T05:31:00.926Z,5.60
2023-07-03T05:33:04.689Z,5.63
2023-07-03T05:35:11.006Z,5.50
2023-07-03T05:37:14.907Z,5.07
2023-07-03T05:39:21.553Z,4.80
2023-07-03T05:41:25.385Z,6.17
2023-07-03T05:43:30.315Z,5.43
2023-07-03T05:45:34.130Z,4.60
2023-07-03T05:47:39.053Z,5.00
2023-07-03T05:49:43.948Z,6.70
2023-07-03T05:51:48.895Z,4.07
2023-07-03T05:53:52.714Z,5.33
2023-07-03T05:55:58.144Z,4.93
2023-07-03T05:58:01.578Z,4.77
2023-07-03T06:00:14.081Z,5.57
2023-07-03T06:02:18.312Z,4.77
2023-07-03T06:04:23.849Z,5.73
2023-07-03T06:06:27.517Z,5.63
2023-07-03T06:08:33.296Z,4.90
2023-07-03T06:10:36.849Z,6.73
2023-07-03T06:12:40.691Z,4.53
2023-07-03T06:14:44.513Z,5.53
2023-07-03T06:16:50.810Z,5.93
2023-07-03T06:18:54.652Z,5.80
2023-07-03T06:20:58.113Z,5.70
2023-07-03T06:23:01.855Z,4.33
2023-07-03T06:25:08.632Z,6.03
2023-07-03T06:27:13.247Z,5.40
2023-07-03T06:29:19.733Z,5.53
2023-07-03T06:31:24.276Z,4.53
2023-07-03T06:33:28.273Z,5.57
2023-07-03T06:35:32.607Z,4.77
2023-07-03T06:37:38.361Z,5.27
2023-07-03T06:39:41.899Z,5.63
2023-07-03T06:41:46.964Z,5.73
2023-07-03T06:43:51.321Z,5.10
2023-07-03T06:45:58.434Z,4.60
2023-07-03T06:48:03.103Z,5.40
2023-07-03T06:50:08.039Z,4.80
2023-07-03T06:52:12.339Z,5.73
2023-07-03T06:54:16.524Z,6.30
2023-07-03T06:56:21.105Z,4.80
2023-07-03T06:58:26.507Z,5.17
2023-07-03T07:00:30.254Z,5.23
2023-07-03T07:02:34.250Z,6.83
2023-07-03T07:04:37.999Z,6.33
2023-07-03T07:06:41.876Z,5.67
2023-07-03T07:08:47.176Z,5.53
2023-07-03T07:10:51.034Z,4.63
2023-07-03T07:12:54.698Z,5.70
2023-07-03T07:14:59.964Z,4.97
2023-07-03T07:17:03.678Z,4.80
2023-07-03T07:19:09.325Z,5.10
2023-07-03T07:21:13.431Z,6.20
2023-07-03T07:23:16.862Z,5.17
2023-07-03T07:25:20.688Z,6.70
2023-07-03T07:27:24.296Z,6.57
2023-07-03T07:29:28.577Z,5.10
2023-07-03T07:31:40.552Z,6.10
2023-07-03T07:33:45.527Z,5.83
2023-07-03T07:35:53.033Z,5.20
2023-07-03T07:37:56.652Z,5.00
2023-07-03T07:40:00.284Z,7.43
2023-07-03T07:42:04.667Z,5.70
2023-07-03T07:44:08.493Z,5.30
2023-07-03T07:46:12.157Z,6.17
2023-07-03T07:48:17.514Z,5.57
2023-07-03T07:50:21.866Z,5.13
2023-07-03T07:52:25.905Z,5.63
2023-07-03T07:54:29.380Z,4.83
2023-07-03T07:56:34.582Z,6.07
2023-07-03T07:58:39.290Z,4.70
2023-07-03T08:00:43.465Z,5.13
2023-07-03T08:02:46.999Z,5.03
2023-07-03T08:04:52.024Z,3.70
2023-07-03T08:06:55.770Z,4.40
2023-07-03T08:08:59.331Z,4.40
2023-07-03T08:11:05.410Z,5.17
2023-07-03T08:13:09.002Z,4.60
2023-07-03T08:15:13.272Z,5.10
2023-07-03T08:17:16.828Z,4.70
2023-07-03T08:19:20.425Z,4.87
2023-07-03T08:21:25.361Z,4.40
2023-07-03T08:23:30.873Z,3.50
2023-07-03T08:25:34.398Z,4.33
2023-07-03T08:27:38.026Z,4.73
2023-07-03T08:29:41.532Z,4.00
2023-07-03T08:31:45.127Z,5.37
2023-07-03T08:33:48.693Z,4.17
2023-07-03T08:38:01.172Z,4.70
2023-07-03T08:40:06.674Z,3.87
2023-07-03T08:42:15.496Z,4.03
2023-07-03T08:44:19.068Z,3.50
2023-07-03T08:46:26.721Z,3.80
2023-07-03T08:48:35.582Z,4.07
2023-07-03T08:50:40.205Z,4.20
2023-07-03T08:52:47.305Z,3.93
2023-07-03T08:54:54.083Z,3.77
2023-07-03T08:56:59.114Z,3.37
2023-07-03T08:59:04.870Z,4.13
2023-07-03T09:01:17.936Z,3.33
2023-07-03T09:03:30.583Z,3.00
2023-07-03T09:05:59.863Z,3.70
2023-07-03T09:08:06.602Z,4.07
2023-07-03T09:10:20.300Z,2.97
2023-07-03T09:12:27.700Z,3.83
2023-07-03T09:14:38.836Z,3.50
2023-07-03T09:16:46.197Z,4.00
2023-07-03T09:18:54.501Z,3.67
2023-07-03T09:21:00.219Z,4.90
2023-07-03T09:23:10.570Z,3.80
2023-07-03T09:25:21.856Z,3.63
2023-07-03T09:27:27.432Z,3.43
2023-07-03T09:29:33.805Z,3.20
2023-07-03T09:31:37.310Z,3.30
2023-07-03T09:33:41.287Z,3.33
2023-07-03T09:35:44.816Z,4.30
2023-07-03T09:37:51.690Z,4.10
2023-07-03T09:39:55.889Z,4.03
2023-07-03T09:42:09.413Z,4.03
2023-07-03T09:44:14.153Z,3.20
2023-07-03T09:46:21.123Z,2.70
2023-07-03T09:48:26.631Z,3.33
2023-07-03T09:50:32.887Z,3.40
2023-07-03T09:52:47.229Z,3.20
2023-07-03T09:55:03.353Z,3.50
2023-07-03T09:57:19.977Z,2.93
2023-07-03T09:59:25.468Z,2.80
2023-07-03T10:03:38.047Z,3.70
2023-07-03T10:07:50.863Z,4.00
2023-07-03T10:12:05.475Z,4.47
2023-07-03T10:14:16.218Z,3.20
2023-07-03T10:16:24.205Z,3.80
2023-07-03T10:18:31.474Z,3.17
2023-07-03T10:20:38.140Z,4.07
2023-07-03T10:22:43.768Z,4.13
2023-07-03T10:24:49.661Z,4.90
2023-07-03T10:26:59.643Z,3.40
2023-07-03T10:29:08.428Z,3.57
2023-07-03T10:31:23.843Z,4.80
2023-07-03T10:33:32.516Z,3.20
2023-07-03T10:35:36.696Z,5.20
2023-07-03T10:37:46.846Z,3.27
2023-07-03T10:39:55.368Z,3.93
2023-07-03T10:42:04.786Z,3.87
2023-07-03T10:44:13.363Z,4.00
2023-07-03T10:46:27.485Z,4.10
2023-07-03T10:48:34.741Z,3.70
2023-07-03T10:50:42.525Z,4.40
2023-07-03T10:52:55.422Z,3.83
2023-07-03T10:55:08.596Z,4.23
2023-07-03T10:57:17.908Z,3.50
2023-07-03T10:59:26.093Z,3.33
2023-07-03T11:01:40.762Z,4.27
2023-07-03T11:04:15.894Z,4.60
2023-07-03T11:06:27.468Z,3.00
2023-07-03T11:08:41.210Z,4.40
2023-07-03T11:10:50.704Z,4.50
2023-07-03T11:13:02.547Z,4.20
2023-07-03T11:15:22.063Z,4.93
2023-07-03T11:17:37.008Z,4.27
2023-07-03T11:19:51.922Z,3.63
2023-07-03T11:24:18.496Z,4.87
2023-07-03T11:28:40.960Z,3.80
2023-07-03T11:30:45.325Z,4.30
2023-07-03T11:32:51.758Z,3.77
2023-07-03T11:37:04.272Z,4.07
2023-07-03T11:43:51.786Z,4.30
2023-07-03T11:46:08.811Z,4.17
2023-07-03T11:48:21.776Z,4.63
2023-07-03T11:50:32.468Z,4.30
2023-07-03T11:52:42.212Z,3.93
2023-07-03T11:54:46.995Z,5.07
2023-07-03T11:56:54.041Z,4.23
2023-07-03T11:59:03.745Z,4.73
2023-07-03T12:01:30.785Z,4.13
2023-07-03T12:03:51.744Z,5.13
2023-07-03T12:05:58.292Z,4.33
2023-07-03T12:08:02.467Z,4.20
2023-07-03T12:10:48.147Z,4.37
2023-07-03T12:13:25.375Z,3.97
2023-07-03T12:15:28.908Z,3.80
2023-07-03T12:17:34.824Z,3.07
2023-07-03T12:19:39.628Z,3.63
2023-07-03T12:21:45.872Z,3.40
2023-07-03T12:23:49.649Z,3.83
2023-07-03T12:26:02.486Z,3.60
2023-07-03T12:28:12.436Z,3.50
2023-07-03T12:30:23.294Z,3.93
2023-07-03T12:32:29.527Z,3.73
2023-07-03T12:34:34.086Z,4.47
2023-07-03T12:36:42.396Z,4.10
2023-07-03T12:38:48.383Z,4.00
2023-07-03T12:40:52.109Z,4.17
2023-07-03T12:42:58.616Z,4.17
2023-07-03T12:45:13.012Z,3.60
2023-07-03T12:47:18.846Z,3.90
2023-07-03T12:49:22.625Z,3.60
2023-07-03T12:51:26.096Z,3.97
2023-07-03T12:53:35.342Z,4.10
2023-07-03T12:55:39.906Z,4.20
2023-07-03T12:57:45.869Z,4.10
2023-07-03T12:59:51.476Z,4.20
2023-07-03T13:01:55.559Z,4.90
2023-07-03T13:03:59.552Z,4.80
2023-07-03T13:06:03.290Z,4.43
2023-07-03T13:08:13.994Z,4.17
2023-07-03T13:10:20.039Z,4.23
2023-07-03T13:12:27.702Z,4.20
2023-07-03T13:14:31.683Z,4.20
2023-07-03T13:16:35.474Z,3.37
2023-07-03T13:18:39.074Z,5.20
2023-07-03T13:20:54.797Z,4.30
2023-07-03T13:23:00.878Z,4.00
2023-07-03T13:25:04.363Z,4.50
2023-07-03T13:27:09.350Z,5.47
2023-07-03T13:29:12.830Z,3.70
2023-07-03T13:31:22.548Z,4.10
2023-07-03T13:33:29.148Z,4.33
2023-07-03T13:35:43.894Z,4.13
2023-07-03T13:37:47.406Z,4.43
2023-07-03T13:40:01.215Z,4.00
2023-07-03T13:42:08.718Z,4.17
2023-07-03T13:44:16.061Z,3.90
2023-07-03T13:46:19.548Z,3.80
2023-07-03T13:48:24.649Z,4.47
2023-07-03T13:50:29.384Z,4.33
2023-07-03T13:52:32.826Z,3.23
2023-07-03T13:54:36.432Z,4.17
2023-07-03T13:56:39.921Z,4.23
2023-07-03T13:58:43.316Z,4.10
2023-07-03T14:00:48.131Z,3.63
2023-07-03T14:02:51.916Z,4.63
2023-07-03T14:04:55.542Z,5.30
2023-07-03T14:06:58.979Z,5.03
2023-07-03T14:09:02.479Z,3.97
2023-07-03T14:11:06.687Z,4.00
2023-07-03T14:13:11.498Z,3.40
2023-07-03T14:15:18.513Z,4.70
2023-07-03T14:17:23.557Z,4.90
2023-07-03T14:19:27.221Z,4.67
2023-07-03T14:21:30.706Z,3.83
2023-07-03T14:23:34.798Z,3.43
2023-07-03T14:25:38.542Z,3.83
2023-07-03T14:27:42.042Z,3.73
2023-07-03T14:29:45.518Z,3.13
2023-07-03T14:31:50.464Z,4.83
2023-07-03T14:33:55.661Z,4.30
2023-07-03T14:35:59.296Z,4.50
2023-07-03T14:38:02.878Z,4.20
2023-07-03T14:40:08.051Z,3.87
2023-07-03T14:42:11.594Z,4.13
2023-07-03T14:44:15.295Z,5.60
2023-07-03T14:46:18.811Z,5.07
2023-07-03T14:48:22.356Z,4.70
2023-07-03T14:50:27.312Z,4.07
2023-07-03T14:52:36.757Z,3.63
2023-07-03T14:54:40.352Z,4.10
2023-07-03T14:56:43.850Z,5.03
2023-07-03T14:58:47.342Z,4.40
2023-07-03T15:00:51.081Z,5.30
2023-07-03T15:02:54.767Z,4.50
2023-07-03T15:05:00.144Z,5.27
2023-07-03T15:07:05.133Z,4.80
2023-07-03T15:09:09.382Z,5.10
2023-07-03T15:11:16.336Z,4.80
2023-07-03T15:13:19.809Z,5.20
2023-07-03T15:15:23.247Z,5.50
2023-07-03T15:17:26.746Z,4.87
2023-07-03T15:19:30.485Z,4.53
2023-07-03T15:21:37.120Z,5.70
2023-07-03T15:23:41.930Z,5.23
2023-07-03T15:25:46.486Z,5.10
2023-07-03T15:27:49.978Z,6.43
2023-07-03T15:29:53.774Z,5.00
2023-07-03T15:31:57.993Z,5.67
2023-07-03T15:34:01.572Z,6.13
2023-07-03T15:36:05.610Z,6.60
2023-07-03T15:38:09.026Z,5.90
2023-07-03T15:40:15.085Z,5.80
2023-07-03T15:42:18.571Z,5.70
2023-07-03T15:44:22.261Z,5.20
2023-07-03T15:46:25.738Z,5.47
2023-07-03T15:48:29.371Z,5.20
2023-07-03T15:50:32.875Z,6.43
2023-07-03T15:52:36.387Z,5.37
2023-07-03T15:54:39.864Z,5.10
2023-07-03T15:56:44.723Z,6.17
2023-07-03T15:58:53.535Z,5.47
2023-07-03T16:00:58.760Z,5.60
2023-07-03T16:03:02.291Z,6.27
2023-07-03T16:05:06.387Z,6.70
2023-07-03T16:07:10.064Z,7.00
2023-07-03T16:09:13.591Z,7.00
2023-07-03T16:11:19.791Z,6.80
2023-07-03T16:13:28.333Z,6.67
2023-07-03T16:15:33.145Z,6.50
2023-07-03T16:17:36.677Z,6.83
2023-07-03T16:19:40.230Z,6.43
2023-07-03T16:21:43.696Z,7.20
2023-07-03T16:23:47.426Z,6.37
2023-07-03T16:25:51.687Z,7.47
2023-07-03T16:27:55.344Z,6.67
2023-07-03T16:30:00.557Z,6.67
2023-07-03T16:32:04.175Z,6.73
2023-07-03T16:34:07.707Z,6.77
2023-07-03T16:36:13.640Z,7.70
2023-07-03T16:38:17.129Z,6.50
2023-07-03T16:40:20.627Z,7.07
2023-07-03T16:42:24.118Z,7.80
2023-07-03T16:44:27.564Z,6.67
2023-07-03T16:46:32.458Z,6.60
2023-07-03T16:48:37.078Z,5.90
2023-07-03T16:50:40.551Z,5.60
2023-07-03T16:52:43.969Z,5.33
2023-07-03T16:54:47.391Z,5.90
2023-07-03T16:56:53.220Z,6.40
2023-07-03T16:58:59.289Z,5.43
2023-07-03T17:01:06.800Z,7.53
2023-07-03T17:03:12.847Z,7.20
2023-07-03T17:05:17.317Z,6.00
2023-07-03T17:07:20.838Z,6.23
2023-07-03T17:09:24.412Z,6.47
2023-07-03T17:11:27.968Z,7.20
2023-07-03T17:13:32.037Z,6.20
2023-07-03T17:15:35.959Z,7.00
2023-07-03T17:17:40.935Z,7.07
2023-07-03T17:19:45.755Z,7.00
2023-07-03T17:21:49.205Z,5.70
2023-07-03T17:23:58.805Z,5.63
2023-07-03T17:26:02.529Z,6.63
2023-07-03T17:28:06.272Z,7.07
2023-07-03T17:30:10.806Z,6.13
2023-07-03T17:32:16.222Z,7.10
2023-07-03T17:34:19.803Z,6.30
2023-07-03T17:36:25.252Z,6.23
2023-07-03T17:38:28.900Z,7.07
2023-07-03T17:40:32.447Z,6.70
2023-07-03T17:42:35.887Z,6.40
2023-07-03T17:44:39.355Z,7.50
2023-07-03T17:46:42.823Z,6.90
2023-07-03T17:48:46.475Z,6.50
2023-07-03T17:50:50.882Z,7.20
2023-07-03T17:52:55.944Z,6.80
2023-07-03T17:54:59.480Z,5.60
2023-07-03T17:57:03.025Z,7.03
2023-07-03T17:59:06.810Z,7.43
2023-07-03T18:01:11.841Z,6.17
2023-07-03T18:03:15.780Z,5.70
2023-07-03T18:05:19.823Z,7.27
2023-07-03T18:07:25.501Z,6.67
2023-07-03T18:09:30.325Z,5.87
2023-07-03T18:11:33.851Z,6.60
2023-07-03T18:13:37.397Z,6.40
2023-07-03T18:15:49.002Z,6.20
2023-07-03T18:17:53.865Z,5.90
2023-07-03T18:19:57.346Z,6.80
2023-07-03T18:22:01.424Z,6.00
2023-07-03T18:24:06.467Z,6.03
2023-07-03T18:26:12.900Z,5.73
2023-07-03T18:28:16.346Z,6.40
2023-07-03T18:30:19.991Z,6.10
2023-07-03T18:32:24.614Z,6.50
2023-07-03T18:34:28.574Z,6.40
2023-07-03T18:36:32.027Z,5.90
2023-07-03T18:38:35.511Z,5.73
2023-07-03T18:40:39.018Z,6.20
2023-07-03T18:42:43.799Z,6.23
2023-07-03T18:44:47.481Z,6.30
2023-07-03T18:46:51.170Z,5.73
2023-07-03T18:48:54.732Z,6.80
2023-07-03T18:50:58.257Z,5.50
2023-07-03T18:53:04.333Z,7.03
2023-07-03T18:55:11.148Z,5.90
2023-07-03T18:57:14.631Z,6.40
2023-07-03T18:59:19.477Z,7.03
2023-07-03T19:01:23.132Z,7.10
2023-07-03T19:03:26.773Z,6.63
2023-07-03T19:05:31.386Z,5.90
2023-07-03T19:07:35.147Z,6.80
2023-07-03T19:09:39.585Z,5.43
2023-07-03T19:11:45.387Z,9.03
2023-07-03T19:13:49.076Z,8.00
2023-07-03T19:15:55.641Z,6.37
2023-07-03T19:17:59.364Z,6.70
2023-07-03T19:20:02.967Z,6.77
2023-07-03T19:22:07.091Z,6.30
2023-07-03T19:24:10.526Z,5.97
2023-07-03T19:26:13.996Z,6.20
2023-07-03T19:28:17.445Z,8.30
2023-07-03T19:30:20.901Z,6.73
2023-07-03T19:32:26.716Z,6.87
2023-07-03T19:34:30.214Z,6.83
2023-07-03T19:36:33.858Z,6.10
2023-07-03T19:38:38.813Z,5.50
2023-07-03T19:40:42.363Z,6.63
2023-07-03T19:42:46.023Z,6.13
2023-07-03T19:44:49.609Z,6.40
2023-07-03T19:46:53.152Z,7.30
2023-07-03T19:48:58.211Z,6.73
2023-07-03T19:51:04.088Z,6.20
2023-07-03T19:53:09.886Z,6.20
2023-07-03T19:55:13.367Z,7.40
2023-07-03T19:57:18.412Z,6.57
2023-07-03T19:59:21.893Z,5.93
2023-07-03T20:01:25.490Z,7.17
2023-07-03T20:03:29.613Z,7.60
2023-07-03T20:05:37.125Z,6.63
2023-07-03T20:07:40.972Z,7.03
2023-07-03T20:09:44.362Z,5.93
2023-07-03T20:11:48.378Z,5.80
2023-07-03T20:13:53.048Z,5.30
2023-07-03T20:15:57.054Z,7.13
2023-07-03T20:18:01.001Z,6.50
2023-07-03T20:20:05.131Z,6.10
2023-07-03T20:22:10.055Z,5.37
2023-07-03T20:24:14.526Z,5.63
2023-07-03T20:26:17.994Z,6.20
2023-07-03T20:28:22.099Z,6.10
2023-07-03T20:30:25.515Z,6.23
2023-07-03T20:32:29.034Z,7.00
2023-07-03T20:34:32.549Z,5.53
2023-07-03T20:36:36.669Z,5.53
2023-07-03T20:38:41.700Z,5.83
2023-07-03T20:40:45.275Z,4.97
2023-07-03T20:42:49.109Z,6.23
2023-07-03T20:44:54.774Z,5.60
2023-07-03T20:46:58.248Z,5.20
2023-07-03T20:49:02.292Z,5.23
2023-07-03T20:51:13.072Z,4.73
2023-07-03T20:53:16.506Z,5.30
2023-07-03T20:55:36.264Z,4.17
2023-07-03T20:57:40.105Z,4.83
2023-07-03T20:59:43.677Z,3.53
2023-07-03T21:01:47.192Z,4.30
2023-07-03T21:03:52.373Z,4.27
2023-07-03T21:05:55.858Z,3.83
2023-07-03T21:07:59.270Z,3.40
2023-07-03T21:10:02.764Z,4.30
2023-07-03T21:12:08.790Z,3.93
2023-07-03T21:14:13.457Z,4.10
2023-07-03T21:16:18.936Z,3.80
2023-07-03T21:18:22.414Z,4.50
2023-07-03T21:20:28.519Z,4.07
2023-07-03T21:22:32.028Z,3.33
2023-07-03T21:24:35.548Z,3.70
2023-07-03T21:26:39.096Z,3.37
2023-07-03T21:28:43.948Z,4.70
2023-07-03T21:30:47.449Z,4.50
2023-07-03T21:32:51.444Z,4.67
2023-07-03T21:34:55.393Z,3.90
2023-07-03T21:36:58.926Z,3.23
2023-07-03T21:39:05.429Z,4.50
2023-07-03T21:41:10.793Z,4.03
2023-07-03T21:43:14.268Z,3.83
2023-07-03T21:45:19.346Z,3.90
2023-07-03T21:47:22.997Z,3.40
2023-07-03T21:49:26.677Z,4.30
2023-07-03T21:51:31.725Z,3.33
2023-07-03T21:53:35.705Z,4.07
2023-07-03T21:55:39.332Z,4.30
2023-07-03T21:57:42.840Z,3.80
2023-07-03T21:59:50.183Z,3.70
2023-07-03T22:01:55.166Z,2.73
2023-07-03T22:03:59.606Z,3.07
2023-07-03T22:06:05.868Z,3.33
2023-07-03T22:08:09.370Z,2.90
2023-07-03T22:10:12.847Z,3.07
2023-07-03T22:12:16.307Z,3.67
2023-07-03T22:14:19.753Z,3.70
2023-07-03T22:16:23.641Z,3.07
2023-07-03T22:18:30.272Z,3.73
2023-07-03T22:20:33.886Z,3.30
2023-07-03T22:22:37.404Z,2.80
2023-07-03T22:24:40.819Z,2.97
2023-07-03T22:26:44.490Z,2.63
2023-07-03T22:28:48.310Z,3.10
2023-07-03T22:30:51.809Z,3.30
2023-07-03T22:32:55.224Z,2.73
2023-07-03T22:35:00.100Z,2.53
2023-07-03T22:37:03.520Z,3.33
2023-07-03T22:39:06.983Z,2.93
2023-07-03T22:41:11.485Z,3.07
2023-07-03T22:43:14.916Z,2.87
2023-07-03T22:45:18.995Z,3.40
2023-07-03T22:47:22.624Z,3.20
2023-07-03T22:49:26.208Z,2.97
2023-07-03T22:51:32.089Z,3.20
2023-07-03T22:53:37.701Z,2.67
2023-07-03T22:55:41.791Z,2.70
2023-07-03T22:57:46.078Z,2.80
2023-07-03T22:59:50.230Z,2.40
2023-07-03T23:01:54.120Z,2.63
2023-07-03T23:03:57.598Z,2.97
2023-07-03T23:06:01.475Z,2.43
2023-07-03T23:08:06.618Z,3.23
2023-07-03T23:10:11.884Z,3.63
2023-07-03T23:12:15.323Z,3.10
2023-07-03T23:14:18.796Z,3.43
2023-07-03T23:16:22.320Z,3.50
2023-07-03T23:18:25.863Z,3.03
2023-07-03T23:20:30.531Z,3.23
2023-07-03T23:22:34.422Z,3.13
2023-07-03T23:24:39.404Z,3.80
2023-07-03T23:26:42.959Z,2.87
2023-07-03T23:28:46.794Z,2.90
2023-07-03T23:30:55.723Z,3.37
2023-07-03T23:32:59.229Z,3.70
2023-07-03T23:35:02.716Z,3.60
2023-07-03T23:37:09.281Z,3.10
2023-07-03T23:39:15.148Z,3.17
2023-07-03T23:41:20.301Z,2.90
2023-07-03T23:43:24.289Z,3.40
2023-07-03T23:45:27.848Z,3.60
2023-07-03T23:47:31.431Z,3.23
2023-07-03T23:49:34.890Z,3.43
2023-07-03T23:51:38.604Z,2.60
2023-07-03T23:53:45.876Z,2.83
2023-07-03T23:55:49.392Z,2.90
2023-07-03T23:57:54.578Z,3.30
2023-07-03T23:59:58.156Z,2.83
